sensor_id;sensor_type;location;lat;lon;timestamp;P1;durP1;ratioP1;P2;durP2;ratioP2
79139;SDS011;68546;59.142;37.948;2023-07-20T00:00:57;11.95;;;3.85;;
79139;SDS011;68546;59.142;37.948;2023-07-20T00:03:25;13.53;;;4.27;;
79139;SDS011;68546;59.142;37.948;2023-07-20T00:05:54;15.10;;;4.32;;
79139;SDS011;68546;59.142;37.948;2023-07-20T00:08:22;9.70;;;3.38;;
79139;SDS011;68546;59.142;37.948;2023-07-20T00:10:48;12.15;;;4.55;;
79139;SDS011;68546;59.142;37.948;2023-07-20T00:13:15;9.77;;;3.60;;
79139;SDS011;68546;59.142;37.948;2023-07-20T00:15:44;12.67;;;3.77;;
79139;SDS011;68546;59.142;37.948;2023-07-20T00:18:10;11.63;;;3.60;;
79139;SDS011;68546;59.142;37.948;2023-07-20T00:20:37;18.05;;;5.30;;
79139;SDS011;68546;59.142;37.948;2023-07-20T00:23:05;15.07;;;4.60;;
79139;SDS011;68546;59.142;37.948;2023-07-20T00:25:34;18.40;;;4.82;;
79139;SDS011;68546;59.142;37.948;2023-07-20T00:28:02;17.77;;;5.87;;
79139;SDS011;68546;59.142;37.948;2023-07-20T00:30:28;15.80;;;5.13;;
79139;SDS011;68546;59.142;37.948;2023-07-20T00:32:55;16.10;;;4.82;;
79139;SDS011;68546;59.142;37.948;2023-07-20T00:35:22;12.40;;;4.53;;
79139;SDS011;68546;59.142;37.948;2023-07-20T00:37:50;14.63;;;4.53;;
79139;SDS011;68546;59.142;37.948;2023-07-20T00:40:16;18.47;;;3.63;;
79139;SDS011;68546;59.142;37.948;2023-07-20T00:42:43;11.35;;;4.05;;
79139;SDS011;68546;59.142;37.948;2023-07-20T00:45:10;12.35;;;3.92;;
79139;SDS011;68546;59.142;37.948;2023-07-20T00:47:37;10.13;;;3.30;;
79139;SDS011;68546;59.142;37.948;2023-07-20T00:50:03;12.05;;;3.83;;
79139;SDS011;68546;59.142;37.948;2023-07-20T00:52:31;11.53;;;3.67;;
79139;SDS011;68546;59.142;37.948;2023-07-20T00:55:00;10.35;;;3.63;;
79139;SDS011;68546;59.142;37.948;2023-07-20T00:57:27;12.80;;;3.40;;
79139;SDS011;68546;59.142;37.948;2023-07-20T00:59:54;10.07;;;3.55;;
79139;SDS011;68546;59.142;37.948;2023-07-20T01:02:22;11.43;;;3.45;;
79139;SDS011;68546;59.142;37.948;2023-07-20T01:04:48;10.10;;;3.43;;
79139;SDS011;68546;59.142;37.948;2023-07-20T01:07:23;10.25;;;2.92;;
79139;SDS011;68546;59.142;37.948;2023-07-20T01:12:48;8.73;;;3.22;;
79139;SDS011;68546;59.142;37.948;2023-07-20T01:15:18;10.73;;;3.47;;
79139;SDS011;68546;59.142;37.948;2023-07-20T01:17:45;11.00;;;3.37;;
79139;SDS011;68546;59.142;37.948;2023-07-20T01:20:13;13.07;;;3.90;;
79139;SDS011;68546;59.142;37.948;2023-07-20T01:25:43;10.68;;;3.35;;
79139;SDS011;68546;59.142;37.948;2023-07-20T01:28:38;10.65;;;3.53;;
79139;SDS011;68546;59.142;37.948;2023-07-20T01:31:33;15.13;;;5.00;;
79139;SDS011;68546;59.142;37.948;2023-07-20T01:34:03;14.27;;;4.40;;
79139;SDS011;68546;59.142;37.948;2023-07-20T01:36:36;13.02;;;3.97;;
79139;SDS011;68546;59.142;37.948;2023-07-20T01:39:04;14.18;;;4.93;;
79139;SDS011;68546;59.142;37.948;2023-07-20T01:41:32;19.13;;;6.13;;
79139;SDS011;68546;59.142;37.948;2023-07-20T01:43:59;21.47;;;7.37;;
79139;SDS011;68546;59.142;37.948;2023-07-20T01:46:27;26.40;;;8.82;;
79139;SDS011;68546;59.142;37.948;2023-07-20T01:48:54;25.60;;;8.65;;
79139;SDS011;68546;59.142;37.948;2023-07-20T01:51:21;29.40;;;8.98;;
79139;SDS011;68546;59.142;37.948;2023-07-20T01:53:48;24.92;;;7.88;;
79139;SDS011;68546;59.142;37.948;2023-07-20T01:56:14;24.17;;;8.40;;
79139;SDS011;68546;59.142;37.948;2023-07-20T01:58:41;30.52;;;9.48;;
79139;SDS011;68546;59.142;37.948;2023-07-20T02:01:07;22.20;;;7.90;;
79139;SDS011;68546;59.142;37.948;2023-07-20T02:03:34;26.25;;;7.90;;
79139;SDS011;68546;59.142;37.948;2023-07-20T02:06:01;28.63;;;9.20;;
79139;SDS011;68546;59.142;37.948;2023-07-20T02:08:28;30.10;;;9.13;;
79139;SDS011;68546;59.142;37.948;2023-07-20T02:10:56;28.92;;;9.90;;
79139;SDS011;68546;59.142;37.948;2023-07-20T02:13:23;30.77;;;10.23;;
79139;SDS011;68546;59.142;37.948;2023-07-20T02:15:50;32.53;;;10.10;;
79139;SDS011;68546;59.142;37.948;2023-07-20T02:18:17;31.42;;;9.60;;
79139;SDS011;68546;59.142;37.948;2023-07-20T02:20:43;31.13;;;11.10;;
79139;SDS011;68546;59.142;37.948;2023-07-20T02:23:10;32.97;;;11.48;;
79139;SDS011;68546;59.142;37.948;2023-07-20T02:25:37;29.65;;;10.88;;
79139;SDS011;68546;59.142;37.948;2023-07-20T02:28:07;35.67;;;12.27;;
79139;SDS011;68546;59.142;37.948;2023-07-20T02:30:37;31.45;;;11.55;;
79139;SDS011;68546;59.142;37.948;2023-07-20T02:33:05;34.00;;;10.40;;
79139;SDS011;68546;59.142;37.948;2023-07-20T02:35:32;29.05;;;10.07;;
79139;SDS011;68546;59.142;37.948;2023-07-20T02:38:00;25.70;;;8.70;;
79139;SDS011;68546;59.142;37.948;2023-07-20T02:40:26;19.10;;;7.35;;
79139;SDS011;68546;59.142;37.948;2023-07-20T02:42:53;18.98;;;5.93;;
79139;SDS011;68546;59.142;37.948;2023-07-20T02:45:21;13.87;;;4.47;;
79139;SDS011;68546;59.142;37.948;2023-07-20T02:47:48;16.35;;;5.00;;
79139;SDS011;68546;59.142;37.948;2023-07-20T02:50:14;9.40;;;4.00;;
79139;SDS011;68546;59.142;37.948;2023-07-20T02:52:41;10.23;;;3.85;;
79139;SDS011;68546;59.142;37.948;2023-07-20T02:55:07;7.90;;;3.20;;
79139;SDS011;68546;59.142;37.948;2023-07-20T02:57:34;8.10;;;3.07;;
79139;SDS011;68546;59.142;37.948;2023-07-20T03:00:02;9.93;;;3.38;;
79139;SDS011;68546;59.142;37.948;2023-07-20T03:02:31;9.35;;;2.80;;
79139;SDS011;68546;59.142;37.948;2023-07-20T03:04:58;8.57;;;3.10;;
79139;SDS011;68546;59.142;37.948;2023-07-20T03:07:28;8.07;;;2.90;;
79139;SDS011;68546;59.142;37.948;2023-07-20T03:09:54;8.30;;;2.67;;
79139;SDS011;68546;59.142;37.948;2023-07-20T03:12:22;9.57;;;3.38;;
79139;SDS011;68546;59.142;37.948;2023-07-20T03:14:50;9.80;;;3.28;;
79139;SDS011;68546;59.142;37.948;2023-07-20T03:17:16;12.07;;;3.70;;
79139;SDS011;68546;59.142;37.948;2023-07-20T03:19:44;17.02;;;4.93;;
79139;SDS011;68546;59.142;37.948;2023-07-20T03:22:12;20.77;;;5.80;;
79139;SDS011;68546;59.142;37.948;2023-07-20T03:24:40;21.60;;;7.50;;
79139;SDS011;68546;59.142;37.948;2023-07-20T03:27:06;22.02;;;9.10;;
79139;SDS011;68546;59.142;37.948;2023-07-20T03:29:33;30.92;;;10.43;;
79139;SDS011;68546;59.142;37.948;2023-07-20T03:31:59;36.08;;;12.27;;
79139;SDS011;68546;59.142;37.948;2023-07-20T03:34:26;55.33;;;17.53;;
79139;SDS011;68546;59.142;37.948;2023-07-20T03:36:52;51.72;;;17.20;;
79139;SDS011;68546;59.142;37.948;2023-07-20T03:39:22;33.80;;;12.65;;
79139;SDS011;68546;59.142;37.948;2023-07-20T03:41:51;36.15;;;12.93;;
79139;SDS011;68546;59.142;37.948;2023-07-20T03:44:18;37.67;;;11.93;;
79139;SDS011;68546;59.142;37.948;2023-07-20T03:46:44;31.97;;;11.93;;
79139;SDS011;68546;59.142;37.948;2023-07-20T03:49:10;38.17;;;10.98;;
79139;SDS011;68546;59.142;37.948;2023-07-20T03:51:37;44.83;;;14.82;;
79139;SDS011;68546;59.142;37.948;2023-07-20T03:54:05;53.13;;;16.20;;
79139;SDS011;68546;59.142;37.948;2023-07-20T03:56:31;59.40;;;19.65;;
79139;SDS011;68546;59.142;37.948;2023-07-20T03:59:03;56.17;;;17.70;;
79139;SDS011;68546;59.142;37.948;2023-07-20T04:01:30;46.90;;;16.58;;
79139;SDS011;68546;59.142;37.948;2023-07-20T04:04:06;53.35;;;17.55;;
79139;SDS011;68546;59.142;37.948;2023-07-20T04:06:34;42.22;;;17.20;;
79139;SDS011;68546;59.142;37.948;2023-07-20T04:09:00;45.22;;;16.80;;
79139;SDS011;68546;59.142;37.948;2023-07-20T04:11:27;46.03;;;17.70;;
79139;SDS011;68546;59.142;37.948;2023-07-20T04:13:54;39.38;;;16.42;;
79139;SDS011;68546;59.142;37.948;2023-07-20T04:16:24;47.20;;;16.77;;
79139;SDS011;68546;59.142;37.948;2023-07-20T04:18:55;42.03;;;16.13;;
79139;SDS011;68546;59.142;37.948;2023-07-20T04:21:22;36.05;;;13.65;;
79139;SDS011;68546;59.142;37.948;2023-07-20T04:23:50;37.07;;;12.47;;
79139;SDS011;68546;59.142;37.948;2023-07-20T04:26:18;34.25;;;13.63;;
79139;SDS011;68546;59.142;37.948;2023-07-20T04:28:45;30.90;;;13.02;;
79139;SDS011;68546;59.142;37.948;2023-07-20T04:31:20;33.55;;;12.73;;
79139;SDS011;68546;59.142;37.948;2023-07-20T04:33:47;32.90;;;12.50;;
79139;SDS011;68546;59.142;37.948;2023-07-20T04:36:13;34.17;;;13.47;;
79139;SDS011;68546;59.142;37.948;2023-07-20T04:38:42;35.08;;;11.32;;
79139;SDS011;68546;59.142;37.948;2023-07-20T04:41:16;33.50;;;11.63;;
79139;SDS011;68546;59.142;37.948;2023-07-20T04:43:46;30.65;;;12.30;;
79139;SDS011;68546;59.142;37.948;2023-07-20T04:46:17;38.92;;;13.88;;
79139;SDS011;68546;59.142;37.948;2023-07-20T04:48:45;36.27;;;14.17;;
79139;SDS011;68546;59.142;37.948;2023-07-20T04:51:14;35.85;;;14.65;;
79139;SDS011;68546;59.142;37.948;2023-07-20T04:53:41;37.30;;;14.25;;
79139;SDS011;68546;59.142;37.948;2023-07-20T04:56:10;31.75;;;13.05;;
79139;SDS011;68546;59.142;37.948;2023-07-20T04:58:38;28.25;;;10.93;;
79139;SDS011;68546;59.142;37.948;2023-07-20T05:01:04;30.43;;;12.23;;
79139;SDS011;68546;59.142;37.948;2023-07-20T05:03:32;32.55;;;11.27;;
79139;SDS011;68546;59.142;37.948;2023-07-20T05:05:59;34.95;;;14.00;;
79139;SDS011;68546;59.142;37.948;2023-07-20T05:08:25;31.33;;;12.55;;
79139;SDS011;68546;59.142;37.948;2023-07-20T05:10:55;35.80;;;13.95;;
79139;SDS011;68546;59.142;37.948;2023-07-20T05:13:21;40.13;;;13.10;;
79139;SDS011;68546;59.142;37.948;2023-07-20T05:15:52;35.03;;;12.77;;
79139;SDS011;68546;59.142;37.948;2023-07-20T05:18:21;26.67;;;11.00;;
79139;SDS011;68546;59.142;37.948;2023-07-20T05:20:50;29.05;;;10.65;;
79139;SDS011;68546;59.142;37.948;2023-07-20T05:23:17;31.02;;;12.98;;
79139;SDS011;68546;59.142;37.948;2023-07-20T05:25:47;31.77;;;11.23;;
79139;SDS011;68546;59.142;37.948;2023-07-20T05:28:19;32.67;;;12.20;;
79139;SDS011;68546;59.142;37.948;2023-07-20T05:30:46;32.55;;;11.95;;
79139;SDS011;68546;59.142;37.948;2023-07-20T05:33:12;33.72;;;11.90;;
79139;SDS011;68546;59.142;37.948;2023-07-20T05:35:39;32.75;;;11.80;;
79139;SDS011;68546;59.142;37.948;2023-07-20T05:38:06;35.60;;;12.23;;
79139;SDS011;68546;59.142;37.948;2023-07-20T05:40:32;31.20;;;11.65;;
79139;SDS011;68546;59.142;37.948;2023-07-20T05:43:00;26.15;;;10.73;;
79139;SDS011;68546;59.142;37.948;2023-07-20T05:45:27;32.38;;;11.23;;
79139;SDS011;68546;59.142;37.948;2023-07-20T05:47:53;34.58;;;11.98;;
79139;SDS011;68546;59.142;37.948;2023-07-20T05:50:20;33.47;;;11.23;;
79139;SDS011;68546;59.142;37.948;2023-07-20T05:52:46;39.67;;;14.48;;
79139;SDS011;68546;59.142;37.948;2023-07-20T05:55:14;34.85;;;13.13;;
79139;SDS011;68546;59.142;37.948;2023-07-20T05:57:41;33.28;;;12.15;;
79139;SDS011;68546;59.142;37.948;2023-07-20T06:00:09;37.75;;;13.30;;
79139;SDS011;68546;59.142;37.948;2023-07-20T06:02:38;30.03;;;11.73;;
79139;SDS011;68546;59.142;37.948;2023-07-20T06:05:06;38.78;;;13.75;;
79139;SDS011;68546;59.142;37.948;2023-07-20T06:07:36;39.63;;;15.23;;
79139;SDS011;68546;59.142;37.948;2023-07-20T06:10:03;39.83;;;14.55;;
79139;SDS011;68546;59.142;37.948;2023-07-20T06:12:31;38.60;;;13.60;;
79139;SDS011;68546;59.142;37.948;2023-07-20T06:15:03;34.53;;;13.47;;
79139;SDS011;68546;59.142;37.948;2023-07-20T06:17:33;25.63;;;9.50;;
79139;SDS011;68546;59.142;37.948;2023-07-20T06:19:59;27.98;;;11.23;;
79139;SDS011;68546;59.142;37.948;2023-07-20T06:22:27;25.15;;;9.57;;
79139;SDS011;68546;59.142;37.948;2023-07-20T06:24:53;30.92;;;10.00;;
79139;SDS011;68546;59.142;37.948;2023-07-20T06:27:22;30.57;;;9.20;;
79139;SDS011;68546;59.142;37.948;2023-07-20T06:29:48;28.00;;;9.25;;
79139;SDS011;68546;59.142;37.948;2023-07-20T06:32:15;28.30;;;10.57;;
79139;SDS011;68546;59.142;37.948;2023-07-20T06:34:41;32.33;;;11.35;;
79139;SDS011;68546;59.142;37.948;2023-07-20T06:37:08;32.03;;;9.57;;
79139;SDS011;68546;59.142;37.948;2023-07-20T06:39:36;27.33;;;10.40;;
79139;SDS011;68546;59.142;37.948;2023-07-20T06:42:04;26.08;;;9.40;;
79139;SDS011;68546;59.142;37.948;2023-07-20T06:44:30;23.80;;;8.73;;
79139;SDS011;68546;59.142;37.948;2023-07-20T06:46:57;24.48;;;7.57;;
79139;SDS011;68546;59.142;37.948;2023-07-20T06:49:27;18.70;;;6.78;;
79139;SDS011;68546;59.142;37.948;2023-07-20T06:51:53;22.37;;;7.53;;
79139;SDS011;68546;59.142;37.948;2023-07-20T06:54:20;21.50;;;7.80;;
79139;SDS011;68546;59.142;37.948;2023-07-20T06:56:47;17.23;;;5.68;;
79139;SDS011;68546;59.142;37.948;2023-07-20T06:59:13;16.50;;;5.97;;
79139;SDS011;68546;59.142;37.948;2023-07-20T07:01:40;23.40;;;8.45;;
79139;SDS011;68546;59.142;37.948;2023-07-20T07:04:08;25.47;;;8.80;;
79139;SDS011;68546;59.142;37.948;2023-07-20T07:06:35;22.35;;;7.80;;
79139;SDS011;68546;59.142;37.948;2023-07-20T07:09:03;21.05;;;7.70;;
79139;SDS011;68546;59.142;37.948;2023-07-20T07:11:29;20.55;;;7.00;;
79139;SDS011;68546;59.142;37.948;2023-07-20T07:13:56;14.70;;;5.90;;
79139;SDS011;68546;59.142;37.948;2023-07-20T07:16:23;11.87;;;4.50;;
79139;SDS011;68546;59.142;37.948;2023-07-20T07:18:50;22.33;;;8.13;;
79139;SDS011;68546;59.142;37.948;2023-07-20T07:21:17;26.80;;;9.35;;
79139;SDS011;68546;59.142;37.948;2023-07-20T07:23:45;29.17;;;10.38;;
79139;SDS011;68546;59.142;37.948;2023-07-20T07:26:13;27.38;;;10.93;;
79139;SDS011;68546;59.142;37.948;2023-07-20T07:28:40;32.43;;;11.63;;
79139;SDS011;68546;59.142;37.948;2023-07-20T07:31:07;31.38;;;11.60;;
79139;SDS011;68546;59.142;37.948;2023-07-20T07:33:35;29.83;;;10.43;;
79139;SDS011;68546;59.142;37.948;2023-07-20T07:36:02;28.38;;;9.95;;
79139;SDS011;68546;59.142;37.948;2023-07-20T07:38:29;22.27;;;6.72;;
79139;SDS011;68546;59.142;37.948;2023-07-20T07:40:58;17.53;;;6.33;;
79139;SDS011;68546;59.142;37.948;2023-07-20T07:43:27;26.90;;;6.95;;
79139;SDS011;68546;59.142;37.948;2023-07-20T07:45:54;31.25;;;10.27;;
79139;SDS011;68546;59.142;37.948;2023-07-20T07:48:24;30.80;;;10.35;;
79139;SDS011;68546;59.142;37.948;2023-07-20T07:50:51;32.50;;;9.60;;
79139;SDS011;68546;59.142;37.948;2023-07-20T07:53:20;24.47;;;9.20;;
79139;SDS011;68546;59.142;37.948;2023-07-20T07:55:50;20.17;;;6.97;;
79139;SDS011;68546;59.142;37.948;2023-07-20T07:58:18;18.65;;;7.63;;
79139;SDS011;68546;59.142;37.948;2023-07-20T08:00:46;20.88;;;7.50;;
79139;SDS011;68546;59.142;37.948;2023-07-20T08:03:13;18.50;;;8.68;;
79139;SDS011;68546;59.142;37.948;2023-07-20T08:05:41;17.50;;;7.27;;
79139;SDS011;68546;59.142;37.948;2023-07-20T08:08:08;18.70;;;5.68;;
79139;SDS011;68546;59.142;37.948;2023-07-20T08:10:35;22.95;;;6.63;;
79139;SDS011;68546;59.142;37.948;2023-07-20T08:13:01;23.92;;;7.30;;
79139;SDS011;68546;59.142;37.948;2023-07-20T08:15:28;19.45;;;6.18;;
79139;SDS011;68546;59.142;37.948;2023-07-20T08:17:56;17.53;;;6.83;;
79139;SDS011;68546;59.142;37.948;2023-07-20T08:20:22;19.15;;;6.80;;
79139;SDS011;68546;59.142;37.948;2023-07-20T08:22:53;28.30;;;9.20;;
79139;SDS011;68546;59.142;37.948;2023-07-20T08:25:21;30.75;;;8.57;;
79139;SDS011;68546;59.142;37.948;2023-07-20T08:27:47;32.25;;;10.80;;
79139;SDS011;68546;59.142;37.948;2023-07-20T08:30:14;32.80;;;10.53;;
79139;SDS011;68546;59.142;37.948;2023-07-20T08:32:40;25.98;;;8.30;;
79139;SDS011;68546;59.142;37.948;2023-07-20T08:35:07;32.35;;;9.95;;
79139;SDS011;68546;59.142;37.948;2023-07-20T08:37:34;24.67;;;8.77;;
79139;SDS011;68546;59.142;37.948;2023-07-20T08:40:02;22.42;;;7.03;;
79139;SDS011;68546;59.142;37.948;2023-07-20T08:42:32;26.40;;;8.37;;
79139;SDS011;68546;59.142;37.948;2023-07-20T08:45:00;22.60;;;7.30;;
79139;SDS011;68546;59.142;37.948;2023-07-20T08:47:29;20.60;;;6.70;;
79139;SDS011;68546;59.142;37.948;2023-07-20T08:49:57;16.45;;;5.28;;
79139;SDS011;68546;59.142;37.948;2023-07-20T08:52:26;17.70;;;5.05;;
79139;SDS011;68546;59.142;37.948;2023-07-20T08:54:54;13.73;;;3.90;;
79139;SDS011;68546;59.142;37.948;2023-07-20T08:57:22;17.42;;;4.40;;
79139;SDS011;68546;59.142;37.948;2023-07-20T08:59:49;15.18;;;4.07;;
79139;SDS011;68546;59.142;37.948;2023-07-20T09:02:20;14.90;;;4.07;;
79139;SDS011;68546;59.142;37.948;2023-07-20T09:04:50;17.60;;;5.90;;
79139;SDS011;68546;59.142;37.948;2023-07-20T09:07:18;20.50;;;5.90;;
79139;SDS011;68546;59.142;37.948;2023-07-20T09:09:47;14.20;;;4.25;;
79139;SDS011;68546;59.142;37.948;2023-07-20T09:12:15;14.65;;;4.25;;
79139;SDS011;68546;59.142;37.948;2023-07-20T09:14:43;14.70;;;4.38;;
79139;SDS011;68546;59.142;37.948;2023-07-20T09:17:14;12.13;;;4.25;;
79139;SDS011;68546;59.142;37.948;2023-07-20T09:19:50;10.20;;;3.63;;
79139;SDS011;68546;59.142;37.948;2023-07-20T09:22:16;12.50;;;3.30;;
79139;SDS011;68546;59.142;37.948;2023-07-20T09:24:44;7.13;;;2.65;;
79139;SDS011;68546;59.142;37.948;2023-07-20T09:27:11;10.00;;;2.90;;
79139;SDS011;68546;59.142;37.948;2023-07-20T09:29:55;7.80;;;2.90;;
79139;SDS011;68546;59.142;37.948;2023-07-20T09:32:22;9.53;;;3.27;;
79139;SDS011;68546;59.142;37.948;2023-07-20T09:34:50;7.90;;;3.17;;
79139;SDS011;68546;59.142;37.948;2023-07-20T09:37:21;9.13;;;2.70;;
79139;SDS011;68546;59.142;37.948;2023-07-20T09:39:51;7.25;;;2.92;;
79139;SDS011;68546;59.142;37.948;2023-07-20T09:42:21;8.25;;;2.60;;
79139;SDS011;68546;59.142;37.948;2023-07-20T09:44:49;6.70;;;1.90;;
79139;SDS011;68546;59.142;37.948;2023-07-20T09:47:23;5.70;;;2.20;;
79139;SDS011;68546;59.142;37.948;2023-07-20T09:49:57;4.97;;;1.88;;
79139;SDS011;68546;59.142;37.948;2023-07-20T09:52:30;5.32;;;2.03;;
79139;SDS011;68546;59.142;37.948;2023-07-20T09:54:58;5.47;;;1.90;;
79139;SDS011;68546;59.142;37.948;2023-07-20T09:57:26;4.27;;;1.30;;
79139;SDS011;68546;59.142;37.948;2023-07-20T09:59:53;4.28;;;1.60;;
79139;SDS011;68546;59.142;37.948;2023-07-20T10:02:21;4.70;;;1.40;;
79139;SDS011;68546;59.142;37.948;2023-07-20T10:04:53;4.82;;;1.60;;
79139;SDS011;68546;59.142;37.948;2023-07-20T10:07:21;4.70;;;1.50;;
79139;SDS011;68546;59.142;37.948;2023-07-20T10:09:50;5.63;;;1.40;;
79139;SDS011;68546;59.142;37.948;2023-07-20T10:12:18;4.10;;;1.20;;
79139;SDS011;68546;59.142;37.948;2023-07-20T10:14:51;20.73;;;6.38;;
79139;SDS011;68546;59.142;37.948;2023-07-20T10:17:23;26.42;;;8.48;;
79139;SDS011;68546;59.142;37.948;2023-07-20T10:19:54;24.80;;;6.40;;
79139;SDS011;68546;59.142;37.948;2023-07-20T10:22:27;23.13;;;6.83;;
79139;SDS011;68546;59.142;37.948;2023-07-20T10:24:57;19.42;;;5.40;;
79139;SDS011;68546;59.142;37.948;2023-07-20T10:27:25;11.35;;;4.30;;
79139;SDS011;68546;59.142;37.948;2023-07-20T10:29:52;18.42;;;4.95;;
79139;SDS011;68546;59.142;37.948;2023-07-20T10:32:21;16.15;;;4.45;;
79139;SDS011;68546;59.142;37.948;2023-07-20T10:34:51;19.70;;;5.97;;
79139;SDS011;68546;59.142;37.948;2023-07-20T10:40:59;25.20;;;8.15;;
79139;SDS011;68546;59.142;37.948;2023-07-20T10:43:07;21.88;;;7.65;;
79139;SDS011;68546;59.142;37.948;2023-07-20T10:48:05;30.13;;;10.27;;
79139;SDS011;68546;59.142;37.948;2023-07-20T10:50:33;27.80;;;8.93;;
79139;SDS011;68546;59.142;37.948;2023-07-20T10:53:10;24.58;;;7.47;;
79139;SDS011;68546;59.142;37.948;2023-07-20T10:55:39;19.77;;;6.75;;
79139;SDS011;68546;59.142;37.948;2023-07-20T10:58:09;24.25;;;7.68;;
79139;SDS011;68546;59.142;37.948;2023-07-20T11:00:38;27.03;;;7.67;;
79139;SDS011;68546;59.142;37.948;2023-07-20T11:03:32;23.98;;;6.93;;
79139;SDS011;68546;59.142;37.948;2023-07-20T11:09:12;28.75;;;8.10;;
79139;SDS011;68546;59.142;37.948;2023-07-20T11:11:41;27.25;;;8.23;;
79139;SDS011;68546;59.142;37.948;2023-07-20T11:14:09;16.53;;;6.23;;
79139;SDS011;68546;59.142;37.948;2023-07-20T11:16:46;12.70;;;4.68;;
79139;SDS011;68546;59.142;37.948;2023-07-20T11:19:14;17.13;;;3.65;;
79139;SDS011;68546;59.142;37.948;2023-07-20T11:21:45;12.20;;;3.47;;
79139;SDS011;68546;59.142;37.948;2023-07-20T11:24:15;19.02;;;6.60;;
